createdAt,value
2023-02-17T00:00:02.637Z,85.00
2023-02-17T00:01:02.495Z,85.00
2023-02-17T00:02:03.759Z,85.00
2023-02-17T00:03:03.787Z,85.00
2023-02-17T00:04:04.011Z,85.00
2023-02-17T00:05:03.591Z,85.00
2023-02-17T00:06:03.485Z,85.00
2023-02-17T00:07:02.867Z,85.00
2023-02-17T00:08:03.082Z,85.00
2023-02-17T00:09:03.334Z,86.00
2023-02-17T00:10:02.509Z,86.00
2023-02-17T00:11:02.909Z,86.00
2023-02-17T00:12:02.858Z,86.00
2023-02-17T00:13:03.387Z,86.00
2023-02-17T00:14:02.978Z,86.00
2023-02-17T00:15:03.176Z,86.00
2023-02-17T00:16:03.356Z,85.00
2023-02-17T00:17:02.934Z,85.00
2023-02-17T00:18:03.467Z,85.00
2023-02-17T00:19:03.024Z,85.00
2023-02-17T00:20:02.925Z,85.00
2023-02-17T00:21:03.010Z,85.00
2023-02-17T00:22:02.990Z,85.00
2023-02-17T00:23:02.676Z,85.00
2023-02-17T00:24:03.233Z,85.00
2023-02-17T00:25:02.961Z,85.00
2023-02-17T00:26:03.469Z,85.00
2023-02-17T00:27:03.352Z,85.00
2023-02-17T00:28:03.030Z,85.00
2023-02-17T00:29:02.942Z,84.00
2023-02-17T00:30:02.944Z,84.00
2023-02-17T00:31:03.193Z,84.00
2023-02-17T00:32:03.259Z,84.00
2023-02-17T00:33:03.640Z,84.00
2023-02-17T00:34:03.498Z,84.00
2023-02-17T00:35:03.102Z,84.00
2023-02-17T00:36:04.068Z,84.00
2023-02-17T00:37:03.208Z,84.00
2023-02-17T00:38:03.854Z,84.00
2023-02-17T00:39:03.380Z,84.00
2023-02-17T00:40:03.124Z,84.00
2023-02-17T00:41:03.774Z,84.00
2023-02-17T00:42:02.574Z,84.00
2023-02-17T00:43:02.831Z,84.00
2023-02-17T00:44:02.679Z,84.00
2023-02-17T00:45:02.540Z,84.00
2023-02-17T00:46:03.360Z,84.00
2023-02-17T00:47:02.774Z,84.00
2023-02-17T00:48:02.700Z,84.00
2023-02-17T00:49:03.314Z,84.00
2023-02-17T00:50:03.297Z,83.00
2023-02-17T00:51:02.900Z,84.00
2023-02-17T00:52:03.275Z,83.00
2023-02-17T00:53:02.771Z,83.00
2023-02-17T00:54:02.681Z,83.00
2023-02-17T00:55:02.835Z,84.00
2023-02-17T00:56:02.876Z,84.00
2023-02-17T00:57:03.337Z,84.00
2023-02-17T00:58:03.615Z,83.00
2023-02-17T00:59:03.678Z,83.00
2023-02-17T01:00:03.559Z,83.00
2023-02-17T01:01:03.558Z,83.00
2023-02-17T01:02:03.499Z,83.00
2023-02-17T01:03:03.465Z,83.00
2023-02-17T01:04:03.673Z,83.00
2023-02-17T01:05:03.548Z,83.00
2023-02-17T01:06:04.197Z,83.00
2023-02-17T01:07:03.201Z,83.00
2023-02-17T01:08:03.136Z,83.00
2023-02-17T01:09:03.261Z,83.00
2023-02-17T01:10:03.135Z,83.00
2023-02-17T01:11:03.294Z,83.00
2023-02-17T01:12:03.164Z,83.00
2023-02-17T01:13:03.615Z,83.00
2023-02-17T01:14:03.561Z,83.00
2023-02-17T01:15:03.270Z,83.00
2023-02-17T01:16:03.690Z,83.00
2023-02-17T01:17:03.006Z,83.00
2023-02-17T01:18:02.814Z,83.00
2023-02-17T01:19:02.708Z,83.00
2023-02-17T01:20:03.071Z,83.00
2023-02-17T01:21:02.813Z,83.00
2023-02-17T01:22:03.190Z,83.00
2023-02-17T01:23:03.336Z,83.00
2023-02-17T01:24:03.653Z,83.00
2023-02-17T01:25:03.027Z,83.00
2023-02-17T01:26:03.221Z,83.00
2023-02-17T01:27:02.880Z,83.00
2023-02-17T01:28:03.237Z,83.00
2023-02-17T01:29:03.215Z,83.00
2023-02-17T01:30:03.510Z,83.00
2023-02-17T01:31:03.229Z,83.00
2023-02-17T01:32:03.746Z,83.00
2023-02-17T01:33:03.766Z,82.00
2023-02-17T01:34:03.580Z,82.00
2023-02-17T01:35:03.509Z,82.00
2023-02-17T01:36:03.746Z,82.00
2023-02-17T01:37:03.316Z,83.00
2023-02-17T01:38:02.943Z,83.00
2023-02-17T01:39:03.476Z,83.00
2023-02-17T01:40:03.503Z,83.00
2023-02-17T01:41:03.079Z,83.00
2023-02-17T01:42:03.843Z,83.00
2023-02-17T01:43:03.475Z,83.00
2023-02-17T01:44:03.720Z,83.00
2023-02-17T01:45:03.850Z,83.00
2023-02-17T01:46:03.729Z,83.00
2023-02-17T01:47:03.285Z,83.00
2023-02-17T01:48:03.266Z,83.00
2023-02-17T01:49:03.291Z,83.00
2023-02-17T01:50:02.765Z,83.00
2023-02-17T01:51:03.341Z,83.00
2023-02-17T01:52:03.616Z,83.00
2023-02-17T01:53:03.767Z,83.00
2023-02-17T01:54:03.663Z,83.00
2023-02-17T01:55:03.740Z,83.00
2023-02-17T01:56:03.423Z,83.00
2023-02-17T01:57:03.009Z,83.00
2023-02-17T01:58:02.947Z,83.00
2023-02-17T01:59:03.254Z,83.00
2023-02-17T02:00:02.990Z,83.00
2023-02-17T02:01:02.989Z,83.00
2023-02-17T02:02:02.758Z,83.00
2023-02-17T02:03:02.457Z,83.00
2023-02-17T02:04:02.600Z,83.00
2023-02-17T02:05:02.149Z,83.00
2023-02-17T02:06:03.001Z,83.00
2023-02-17T02:07:02.579Z,83.00
2023-02-17T02:08:02.563Z,83.00
2023-02-17T02:09:02.741Z,83.00
2023-02-17T02:10:02.624Z,83.00
2023-02-17T02:11:02.537Z,83.00
2023-02-17T02:12:02.910Z,83.00
2023-02-17T02:13:02.642Z,83.00
2023-02-17T02:14:02.493Z,83.00
2023-02-17T02:15:02.665Z,83.00
2023-02-17T02:16:02.987Z,83.00
2023-02-17T02:17:02.455Z,83.00
2023-02-17T02:18:02.489Z,83.00
2023-02-17T02:19:02.162Z,83.00
2023-02-17T02:20:02.077Z,83.00
2023-02-17T02:21:01.917Z,83.00
2023-02-17T02:22:02.756Z,83.00
2023-02-17T02:23:02.501Z,83.00
2023-02-17T02:24:02.344Z,83.00
2023-02-17T02:25:02.826Z,83.00
2023-02-17T02:26:02.339Z,83.00
2023-02-17T02:27:02.851Z,82.00
2023-02-17T02:28:02.392Z,82.00
2023-02-17T02:29:02.906Z,82.00
2023-02-17T02:30:02.587Z,82.00
2023-02-17T02:31:02.743Z,82.00
2023-02-17T02:32:03.378Z,82.00
2023-02-17T02:33:03.015Z,82.00
2023-02-17T02:34:02.804Z,82.00
2023-02-17T02:35:02.915Z,82.00
2023-02-17T02:36:03.173Z,82.00
2023-02-17T02:37:02.315Z,82.00
2023-02-17T02:38:02.645Z,82.00
2023-02-17T02:39:02.590Z,82.00
2023-02-17T02:40:02.691Z,82.00
2023-02-17T02:41:02.346Z,82.00
2023-02-17T02:42:01.989Z,82.00
2023-02-17T02:43:02.033Z,82.00
2023-02-17T02:44:02.637Z,82.00
2023-02-17T02:50:02.502Z,81.00
2023-02-17T02:51:02.360Z,81.00
2023-02-17T02:52:01.939Z,81.00
2023-02-17T02:53:02.098Z,81.00
2023-02-17T02:54:02.029Z,81.00
2023-02-17T02:55:02.091Z,81.00
2023-02-17T02:56:02.051Z,81.00
2023-02-17T02:57:02.614Z,81.00
2023-02-17T02:58:03.144Z,81.00
2023-02-17T02:59:03.021Z,81.00
2023-02-17T03:00:03.140Z,81.00
2023-02-17T03:01:02.903Z,81.00
2023-02-17T03:02:03.110Z,81.00
2023-02-17T03:03:02.948Z,81.00
2023-02-17T03:04:02.820Z,81.00
2023-02-17T03:05:03.268Z,80.00
2023-02-17T03:06:02.978Z,81.00
2023-02-17T03:07:02.935Z,80.00
2023-02-17T03:08:03.352Z,80.00
2023-02-17T03:09:03.188Z,80.00
2023-02-17T03:10:03.118Z,80.00
2023-02-17T03:11:02.923Z,80.00
2023-02-17T03:12:02.431Z,80.00
2023-02-17T03:13:03.009Z,80.00
2023-02-17T03:14:02.687Z,80.00
2023-02-17T03:15:02.509Z,80.00
2023-02-17T03:16:02.657Z,80.00
2023-02-17T03:17:02.570Z,80.00
2023-02-17T03:18:02.709Z,80.00
2023-02-17T03:19:02.758Z,80.00
2023-02-17T03:20:02.920Z,80.00
2023-02-17T03:21:02.803Z,80.00
2023-02-17T03:22:02.641Z,81.00
2023-02-17T03:23:03.000Z,81.00
2023-02-17T03:24:02.934Z,81.00
2023-02-17T03:25:03.029Z,80.00
2023-02-17T03:26:02.989Z,80.00
2023-02-17T03:27:03.117Z,80.00
2023-02-17T03:28:02.839Z,80.00
2023-02-17T03:29:03.456Z,80.00
2023-02-17T03:30:03.195Z,80.00
2023-02-17T03:31:03.209Z,80.00
2023-02-17T03:32:02.159Z,80.00
2023-02-17T03:33:02.058Z,80.00
2023-02-17T03:34:02.502Z,79.00
2023-02-17T03:35:02.258Z,79.00
2023-02-17T03:36:02.072Z,79.00
2023-02-17T03:37:02.541Z,79.00
2023-02-17T03:38:02.426Z,79.00
2023-02-17T03:39:02.759Z,79.00
2023-02-17T03:40:02.653Z,79.00
2023-02-17T03:41:03.272Z,79.00
2023-02-17T03:42:02.784Z,79.00
2023-02-17T03:43:03.106Z,79.00
2023-02-17T03:44:02.961Z,79.00
2023-02-17T03:45:02.819Z,79.00
2023-02-17T03:46:03.295Z,79.00
2023-02-17T03:47:02.388Z,79.00
2023-02-17T03:48:02.200Z,79.00
2023-02-17T03:49:02.682Z,79.00
2023-02-17T03:50:02.478Z,78.00
2023-02-17T03:51:02.724Z,78.00
2023-02-17T03:52:02.320Z,78.00
2023-02-17T03:53:02.217Z,78.00
2023-02-17T03:54:02.810Z,78.00
2023-02-17T03:55:02.385Z,78.00
2023-02-17T03:56:02.800Z,77.00
2023-02-17T03:57:02.342Z,77.00
2023-02-17T03:58:02.347Z,77.00
2023-02-17T03:59:02.719Z,78.00
2023-02-17T04:00:02.764Z,78.00
2023-02-17T04:01:02.829Z,78.00
2023-02-17T04:02:02.709Z,78.00
2023-02-17T04:03:02.605Z,78.00
2023-02-17T04:04:02.509Z,78.00
2023-02-17T04:05:03.020Z,78.00
2023-02-17T04:06:02.895Z,78.00
2023-02-17T04:07:02.647Z,78.00
2023-02-17T04:08:02.473Z,78.00
2023-02-17T04:09:02.912Z,78.00
2023-02-17T04:10:05.485Z,78.00
2023-02-17T04:11:02.484Z,78.00
2023-02-17T04:12:02.398Z,78.00
2023-02-17T04:13:02.173Z,78.00
2023-02-17T04:14:02.720Z,78.00
2023-02-17T04:15:02.322Z,78.00
2023-02-17T04:16:02.467Z,78.00
2023-02-17T04:17:02.638Z,78.00
2023-02-17T04:18:02.473Z,78.00
2023-02-17T04:19:02.170Z,78.00
2023-02-17T04:20:02.602Z,78.00
2023-02-17T04:21:02.375Z,78.00
2023-02-17T04:22:01.832Z,78.00
2023-02-17T04:23:01.686Z,78.00
2023-02-17T04:24:02.094Z,78.00
2023-02-17T04:25:01.821Z,78.00
2023-02-17T04:26:02.252Z,78.00
2023-02-17T04:27:02.585Z,78.00
2023-02-17T04:28:02.372Z,78.00
2023-02-17T04:29:02.868Z,78.00
2023-02-17T04:30:02.531Z,78.00
2023-02-17T04:31:02.455Z,78.00
2023-02-17T04:32:02.296Z,78.00
2023-02-17T04:33:02.017Z,78.00
2023-02-17T04:34:02.022Z,78.00
2023-02-17T04:35:01.869Z,78.00
2023-02-17T04:36:01.663Z,78.00
2023-02-17T04:37:02.286Z,78.00
2023-02-17T04:38:02.125Z,78.00
2023-02-17T04:39:02.020Z,78.00
2023-02-17T04:40:01.956Z,78.00
2023-02-17T04:41:02.420Z,78.00
2023-02-17T04:42:02.790Z,78.00
2023-02-17T04:43:02.590Z,78.00
2023-02-17T04:44:02.470Z,78.00
2023-02-17T04:45:02.998Z,78.00
2023-02-17T04:46:03.126Z,78.00
2023-02-17T04:47:02.400Z,78.00
2023-02-17T04:48:02.288Z,78.00
2023-02-17T04:49:02.185Z,78.00
2023-02-17T04:50:02.618Z,78.00
2023-02-17T04:51:02.445Z,78.00
2023-02-17T04:52:02.911Z,78.00
2023-02-17T04:53:02.605Z,78.00
2023-02-17T04:54:03.180Z,78.00
2023-02-17T04:55:02.756Z,78.00
2023-02-17T04:56:02.570Z,78.00
2023-02-17T04:57:02.134Z,78.00
2023-02-17T04:58:02.036Z,78.00
2023-02-17T04:59:01.722Z,78.00
2023-02-17T05:00:02.215Z,78.00
2023-02-17T05:01:02.334Z,78.00
2023-02-17T05:02:02.340Z,78.00
2023-02-17T05:03:02.332Z,78.00
2023-02-17T05:04:02.275Z,78.00
2023-02-17T05:05:02.524Z,78.00
2023-02-17T05:06:02.381Z,78.00
2023-02-17T05:07:02.499Z,78.00
2023-02-17T05:08:03.031Z,78.00
2023-02-17T05:09:02.584Z,78.00
2023-02-17T05:10:03.067Z,78.00
2023-02-17T05:11:02.876Z,78.00
2023-02-17T05:12:02.050Z,78.00
2023-02-17T05:13:01.863Z,78.00
2023-02-17T05:14:02.464Z,77.00
2023-02-17T05:15:02.116Z,77.00
2023-02-17T05:16:02.115Z,77.00
2023-02-17T05:17:02.659Z,77.00
2023-02-17T05:18:02.352Z,77.00
2023-02-17T05:19:02.813Z,77.00
2023-02-17T05:20:02.420Z,77.00
2023-02-17T05:21:02.220Z,77.00
2023-02-17T05:22:02.761Z,77.00
2023-02-17T05:23:02.664Z,77.00
2023-02-17T05:24:02.508Z,77.00
2023-02-17T05:25:02.223Z,77.00
2023-02-17T05:26:02.722Z,77.00
2023-02-17T05:27:02.288Z,77.00
2023-02-17T05:28:02.144Z,77.00
2023-02-17T05:29:01.976Z,77.00
2023-02-17T05:30:02.206Z,77.00
2023-02-17T05:31:02.429Z,77.00
2023-02-17T05:32:02.742Z,77.00
2023-02-17T05:33:02.619Z,77.00
2023-02-17T05:34:02.527Z,77.00
2023-02-17T05:35:02.281Z,77.00
2023-02-17T05:36:02.156Z,77.00
2023-02-17T05:37:02.763Z,77.00
2023-02-17T05:38:02.350Z,77.00
2023-02-17T05:39:02.235Z,77.00
2023-02-17T05:40:02.776Z,77.00
2023-02-17T05:41:02.324Z,77.00
2023-02-17T05:42:02.841Z,77.00
2023-02-17T05:43:02.660Z,77.00
2023-02-17T05:44:02.316Z,77.00
2023-02-17T05:45:02.891Z,77.00
2023-02-17T05:46:02.742Z,77.00
2023-02-17T05:47:02.350Z,78.00
2023-02-17T05:48:01.970Z,77.00
2023-02-17T05:49:01.746Z,77.00
2023-02-17T05:50:02.252Z,77.00
2023-02-17T05:51:02.073Z,77.00
2023-02-17T05:52:02.494Z,77.00
2023-02-17T05:53:02.053Z,78.00
2023-02-17T05:54:02.431Z,78.00
2023-02-17T05:55:02.089Z,78.00
2023-02-17T05:56:01.879Z,78.00
2023-02-17T05:57:03.093Z,78.00
2023-02-17T05:58:02.665Z,78.00
2023-02-17T05:59:02.847Z,78.00
2023-02-17T06:00:02.761Z,78.00
2023-02-17T06:01:02.870Z,78.00
2023-02-17T06:02:03.309Z,78.00
2023-02-17T06:03:02.877Z,78.00
2023-02-17T06:04:02.833Z,79.00
2023-02-17T06:05:03.763Z,79.00
2023-02-17T06:06:02.778Z,79.00
2023-02-17T06:07:02.435Z,79.00
2023-02-17T06:08:03.025Z,79.00
2023-02-17T06:09:02.668Z,79.00
2023-02-17T06:10:02.462Z,79.00
2023-02-17T06:11:02.916Z,79.00
2023-02-17T06:12:03.069Z,79.00
2023-02-17T06:13:03.033Z,78.00
2023-02-17T06:14:02.966Z,78.00
2023-02-17T06:15:03.265Z,78.00
2023-02-17T06:16:02.841Z,78.00
2023-02-17T06:17:02.411Z,78.00
2023-02-17T06:18:03.013Z,78.00
2023-02-17T06:19:02.831Z,78.00
2023-02-17T06:20:02.736Z,78.00
2023-02-17T06:21:02.585Z,78.00
2023-02-17T06:22:02.475Z,78.00
2023-02-17T06:23:03.076Z,78.00
2023-02-17T06:24:02.749Z,78.00
2023-02-17T06:25:02.523Z,77.00
2023-02-17T06:26:02.412Z,77.00
2023-02-17T06:27:03.018Z,77.00
2023-02-17T06:28:03.392Z,77.00
2023-02-17T06:29:03.395Z,77.00
2023-02-17T06:30:03.048Z,77.00
2023-02-17T06:31:03.513Z,77.00
2023-02-17T06:32:02.449Z,77.00
2023-02-17T06:33:02.205Z,77.00
2023-02-17T06:34:03.846Z,77.00
2023-02-17T06:35:02.242Z,76.00
2023-02-17T06:36:02.835Z,76.00
2023-02-17T06:37:02.642Z,77.00
2023-02-17T06:38:02.640Z,77.00
2023-02-17T06:39:02.550Z,77.00
2023-02-17T06:40:02.866Z,76.00
2023-02-17T06:41:02.827Z,77.00
2023-02-17T06:42:02.309Z,76.00
2023-02-17T06:43:02.201Z,76.00
2023-02-17T06:44:02.351Z,76.00
2023-02-17T06:45:02.359Z,76.00
2023-02-17T06:46:02.470Z,76.00
2023-02-17T06:47:02.516Z,76.00
2023-02-17T06:48:02.390Z,76.00
2023-02-17T06:49:02.910Z,76.00
2023-02-17T06:50:02.339Z,76.00
2023-02-17T06:51:02.408Z,76.00
2023-02-17T06:52:03.063Z,75.00
2023-02-17T06:53:03.010Z,75.00
2023-02-17T06:54:03.161Z,75.00
2023-02-17T06:55:02.939Z,75.00
2023-02-17T06:56:02.880Z,75.00
2023-02-17T06:57:02.406Z,75.00
2023-02-17T06:58:02.783Z,74.00
2023-02-17T06:59:02.467Z,75.00
2023-02-17T07:00:02.413Z,74.00
2023-02-17T07:01:02.449Z,74.00
2023-02-17T07:02:02.953Z,74.00
2023-02-17T07:03:02.918Z,75.00
2023-02-17T07:04:02.620Z,75.00
2023-02-17T07:05:02.530Z,74.00
2023-02-17T07:06:02.643Z,75.00
2023-02-17T07:07:03.102Z,75.00
2023-02-17T07:08:03.094Z,75.00
2023-02-17T07:09:03.160Z,75.00
2023-02-17T07:10:03.473Z,75.00
2023-02-17T07:11:03.049Z,75.00
2023-02-17T07:12:02.725Z,75.00
2023-02-17T07:13:02.662Z,75.00
2023-02-17T07:14:02.540Z,75.00
2023-02-17T07:15:02.476Z,74.00
2023-02-17T07:16:03.072Z,75.00
2023-02-17T07:17:03.008Z,74.00
2023-02-17T07:18:02.915Z,74.00
2023-02-17T07:19:02.788Z,74.00
2023-02-17T07:20:02.714Z,74.00
2023-02-17T07:21:02.687Z,74.00
2023-02-17T07:22:03.417Z,74.00
2023-02-17T07:23:03.377Z,74.00
2023-02-17T07:24:03.263Z,74.00
2023-02-17T07:25:03.240Z,74.00
2023-02-17T07:26:03.431Z,73.00
2023-02-17T07:27:02.808Z,73.00
2023-02-17T07:28:02.689Z,73.00
2023-02-17T07:29:02.511Z,73.00
2023-02-17T07:30:02.991Z,73.00
2023-02-17T07:31:02.754Z,73.00
2023-02-17T07:32:03.143Z,73.00
2023-02-17T07:33:04.877Z,73.00
2023-02-17T07:34:03.661Z,73.00
2023-02-17T07:35:03.040Z,73.00
2023-02-17T07:36:03.916Z,73.00
2023-02-17T07:37:02.801Z,73.00
2023-02-17T07:38:02.709Z,73.00
2023-02-17T07:39:02.474Z,73.00
2023-02-17T07:40:02.458Z,73.00
2023-02-17T07:41:02.974Z,73.00
2023-02-17T07:42:03.345Z,73.00
2023-02-17T07:43:03.285Z,73.00
2023-02-17T07:44:03.271Z,73.00
2023-02-17T07:45:03.396Z,74.00
2023-02-17T07:46:03.392Z,74.00
2023-02-17T07:47:03.142Z,74.00
2023-02-17T07:48:02.910Z,75.00
2023-02-17T07:49:02.881Z,75.00
2023-02-17T07:50:02.922Z,74.00
2023-02-17T07:51:02.948Z,75.00
2023-02-17T07:52:05.305Z,75.00
2023-02-17T07:53:03.512Z,75.00
2023-02-17T07:54:03.720Z,75.00
2023-02-17T07:55:03.460Z,75.00
2023-02-17T07:56:03.229Z,76.00
2023-02-17T07:57:03.166Z,76.00
2023-02-17T07:58:03.103Z,75.00
2023-02-17T07:59:02.889Z,75.00
2023-02-17T08:00:02.836Z,75.00
2023-02-17T08:01:03.122Z,75.00
2023-02-17T08:02:02.981Z,76.00
2023-02-17T08:03:02.630Z,76.00
2023-02-17T08:04:02.675Z,75.00
2023-02-17T08:05:02.662Z,75.00
2023-02-17T08:06:02.539Z,75.00
2023-02-17T08:07:03.310Z,75.00
2023-02-17T08:08:03.069Z,75.00
2023-02-17T08:09:02.781Z,75.00
2023-02-17T08:10:02.908Z,75.00
2023-02-17T08:11:02.905Z,75.00
2023-02-17T08:12:02.628Z,75.00
2023-02-17T08:13:02.325Z,75.00
2023-02-17T08:14:02.297Z,75.00
2023-02-17T08:15:02.302Z,75.00
2023-02-17T08:16:02.132Z,75.00
2023-02-17T08:17:02.866Z,75.00
2023-02-17T08:18:02.480Z,74.00
2023-02-17T08:19:02.447Z,75.00
2023-02-17T08:20:08.648Z,75.00
2023-02-17T08:21:02.181Z,75.00
2023-02-17T08:22:02.629Z,75.00
2023-02-17T08:23:02.712Z,75.00
2023-02-17T08:24:02.517Z,75.00
2023-02-17T08:25:02.502Z,76.00
2023-02-17T08:26:02.420Z,76.00
2023-02-17T08:27:02.379Z,75.00
2023-02-17T08:28:02.406Z,76.00
2023-02-17T08:29:02.383Z,76.00
2023-02-17T08:30:02.529Z,76.00
2023-02-17T08:31:02.553Z,76.00
2023-02-17T08:32:03.470Z,76.00
2023-02-17T08:33:02.689Z,76.00
2023-02-17T08:34:03.040Z,76.00
2023-02-17T08:35:03.057Z,76.00
2023-02-17T08:36:03.067Z,77.00
2023-02-17T08:37:02.118Z,77.00
2023-02-17T08:38:02.201Z,77.00
2023-02-17T08:39:02.763Z,77.00
2023-02-17T08:40:02.536Z,77.00
2023-02-17T08:41:02.569Z,77.00
2023-02-17T08:42:02.593Z,77.00
2023-02-17T08:43:03.720Z,77.00
2023-02-17T08:44:02.743Z,77.00
2023-02-17T08:45:02.677Z,77.00
2023-02-17T08:46:02.654Z,76.00
2023-02-17T08:47:02.724Z,76.00
2023-02-17T08:48:02.632Z,76.00
2023-02-17T08:49:02.646Z,76.00
2023-02-17T08:50:02.627Z,76.00
2023-02-17T08:51:02.821Z,76.00
2023-02-17T08:52:02.291Z,76.00
2023-02-17T08:53:02.865Z,76.00
2023-02-17T08:54:02.491Z,76.00
2023-02-17T08:55:02.448Z,76.00
2023-02-17T08:56:02.365Z,76.00
2023-02-17T08:57:02.306Z,76.00
2023-02-17T08:58:02.279Z,76.00
2023-02-17T08:59:02.902Z,76.00
2023-02-17T09:00:04.263Z,76.00
2023-02-17T09:01:02.491Z,76.00
2023-02-17T09:02:02.627Z,76.00
2023-02-17T09:03:02.955Z,76.00
2023-02-17T09:04:02.932Z,76.00
2023-02-17T09:05:02.625Z,76.00
2023-02-17T09:06:03.173Z,76.00
2023-02-17T09:07:02.978Z,76.00
2023-02-17T09:08:03.584Z,76.00
2023-02-17T09:09:03.240Z,76.00
2023-02-17T09:10:03.204Z,76.00
2023-02-17T09:11:03.115Z,76.00
2023-02-17T09:12:03.088Z,76.00
2023-02-17T09:13:03.593Z,76.00
2023-02-17T09:14:03.275Z,77.00
2023-02-17T09:15:03.352Z,76.00
2023-02-17T09:16:03.387Z,76.00
2023-02-17T09:17:02.486Z,76.00
2023-02-17T09:18:03.040Z,77.00
2023-02-17T09:19:02.832Z,76.00
2023-02-17T09:20:02.452Z,77.00
2023-02-17T09:21:02.945Z,77.00
2023-02-17T09:22:02.900Z,77.00
2023-02-17T09:23:02.977Z,77.00
2023-02-17T09:24:03.179Z,77.00
2023-02-17T09:25:03.280Z,77.00
2023-02-17T09:26:03.265Z,77.00
2023-02-17T09:27:03.726Z,77.00
2023-02-17T09:28:03.819Z,77.00
2023-02-17T09:29:03.650Z,77.00
2023-02-17T09:30:03.753Z,77.00
2023-02-17T09:31:03.527Z,77.00
2023-02-17T09:32:03.657Z,77.00
2023-02-17T09:33:03.723Z,76.00
2023-02-17T09:34:03.557Z,77.00
2023-02-17T09:35:03.741Z,77.00
2023-02-17T09:36:03.734Z,77.00
2023-02-17T09:37:02.834Z,77.00
2023-02-17T09:38:02.902Z,77.00
2023-02-17T09:39:03.103Z,76.00
2023-02-17T09:40:02.930Z,76.00
2023-02-17T09:41:03.120Z,76.00
2023-02-17T09:42:03.188Z,76.00
2023-02-17T09:43:03.026Z,76.00
2023-02-17T09:44:03.452Z,76.00
2023-02-17T09:45:03.514Z,76.00
2023-02-17T09:46:03.480Z,76.00
2023-02-17T09:47:03.451Z,76.00
2023-02-17T09:48:03.292Z,75.00
2023-02-17T09:49:03.704Z,75.00
2023-02-17T09:50:03.380Z,75.00
2023-02-17T09:51:03.270Z,75.00
2023-02-17T09:52:02.593Z,75.00
2023-02-17T09:53:02.574Z,74.00
2023-02-17T09:54:02.676Z,74.00
2023-02-17T09:55:02.796Z,73.00
2023-02-17T09:56:02.784Z,74.00
2023-02-17T09:57:02.809Z,74.00
2023-02-17T09:58:02.883Z,73.00
2023-02-17T09:59:02.779Z,73.00
2023-02-17T10:00:02.583Z,73.00
2023-02-17T10:01:02.746Z,73.00
2023-02-17T10:02:02.965Z,73.00
2023-02-17T10:03:03.068Z,73.00
2023-02-17T10:04:03.227Z,73.00
2023-02-17T10:05:03.269Z,72.00
2023-02-17T10:06:03.086Z,72.00
2023-02-17T10:07:03.160Z,72.00
2023-02-17T10:08:03.404Z,72.00
2023-02-17T10:09:02.964Z,72.00
2023-02-17T10:10:03.500Z,71.00
2023-02-17T10:11:03.334Z,72.00
2023-02-17T10:12:03.381Z,72.00
2023-02-17T10:13:03.377Z,71.00
2023-02-17T10:14:03.328Z,71.00
2023-02-17T10:15:03.253Z,71.00
2023-02-17T10:16:04.144Z,71.00
2023-02-17T10:17:03.166Z,70.00
2023-02-17T10:18:02.983Z,70.00
2023-02-17T10:19:02.878Z,70.00
2023-02-17T10:20:02.962Z,71.00
2023-02-17T10:21:02.969Z,70.00
2023-02-17T10:22:02.784Z,70.00
2023-02-17T10:23:03.027Z,69.00
2023-02-17T10:24:02.891Z,70.00
2023-02-17T10:25:02.926Z,70.00
2023-02-17T10:26:02.939Z,70.00
2023-02-17T10:27:03.352Z,69.00
2023-02-17T10:28:03.294Z,69.00
2023-02-17T10:29:03.349Z,69.00
2023-02-17T10:30:03.212Z,69.00
2023-02-17T10:31:03.346Z,69.00
2023-02-17T10:32:03.067Z,68.00
2023-02-17T10:33:02.855Z,68.00
2023-02-17T10:34:03.005Z,68.00
2023-02-17T10:35:02.925Z,68.00
2023-02-17T10:36:02.969Z,68.00
2023-02-17T10:37:03.294Z,68.00
2023-02-17T10:38:03.211Z,68.00
2023-02-17T10:39:03.097Z,68.00
2023-02-17T10:40:03.127Z,68.00
2023-02-17T10:41:02.995Z,68.00
2023-02-17T10:42:03.589Z,68.00
2023-02-17T10:43:07.031Z,67.00
2023-02-17T10:44:03.596Z,67.00
2023-02-17T10:45:03.719Z,67.00
2023-02-17T10:46:03.555Z,67.00
2023-02-17T10:47:03.098Z,66.00
2023-02-17T10:48:03.149Z,65.00
2023-02-17T10:49:05.125Z,66.00
2023-02-17T10:50:02.976Z,66.00
2023-02-17T10:51:03.004Z,65.00
2023-02-17T10:52:03.729Z,66.00
2023-02-17T10:53:03.656Z,66.00
2023-02-17T10:54:03.665Z,65.00
2023-02-17T10:55:11.402Z,66.00
2023-02-17T10:56:04.401Z,66.00
2023-02-17T10:57:03.436Z,65.00
2023-02-17T10:58:03.312Z,66.00
2023-02-17T10:59:03.241Z,65.00
2023-02-17T11:00:03.246Z,65.00
2023-02-17T11:01:03.378Z,64.00
2023-02-17T11:02:02.702Z,65.00
2023-02-17T11:03:02.286Z,64.00
2023-02-17T11:04:02.377Z,63.00
2023-02-17T11:05:02.457Z,63.00
2023-02-17T11:06:02.373Z,64.00
2023-02-17T11:07:02.886Z,63.00
2023-02-17T11:08:02.907Z,63.00
2023-02-17T11:09:02.990Z,63.00
2023-02-17T11:10:02.768Z,63.00
2023-02-17T11:11:02.714Z,63.00
2023-02-17T11:12:03.499Z,63.00
2023-02-17T11:13:03.581Z,62.00
2023-02-17T11:14:03.188Z,63.00
2023-02-17T11:15:03.445Z,63.00
2023-02-17T11:16:03.388Z,62.00
2023-02-17T11:17:03.043Z,62.00
2023-02-17T11:18:02.841Z,63.00
2023-02-17T11:19:02.930Z,62.00
2023-02-17T11:20:02.723Z,63.00
2023-02-17T11:21:02.615Z,63.00
2023-02-17T11:22:03.450Z,63.00
2023-02-17T11:23:03.194Z,62.00
2023-02-17T11:24:03.237Z,63.00
2023-02-17T11:25:03.277Z,63.00
2023-02-17T11:26:03.146Z,63.00
2023-02-17T11:27:02.205Z,62.00
2023-02-17T11:28:02.199Z,62.00
2023-02-17T11:29:02.811Z,62.00
2023-02-17T11:30:02.572Z,62.00
2023-02-17T11:31:02.766Z,62.00
2023-02-17T11:32:02.734Z,62.00
2023-02-17T11:33:02.847Z,62.00
2023-02-17T11:34:02.901Z,62.00
2023-02-17T11:35:02.842Z,62.00
2023-02-17T11:36:02.946Z,62.00
2023-02-17T11:37:03.059Z,62.00
2023-02-17T11:38:03.582Z,62.00
2023-02-17T11:39:03.615Z,62.00
2023-02-17T11:40:03.678Z,63.00
2023-02-17T11:41:03.085Z,62.00
2023-02-17T11:42:03.665Z,62.00
2023-02-17T11:43:03.342Z,62.00
2023-02-17T11:44:03.052Z,63.00
2023-02-17T11:45:02.852Z,63.00
2023-02-17T11:46:02.880Z,63.00
2023-02-17T11:47:02.961Z,63.00
2023-02-17T11:48:02.712Z,63.00
2023-02-17T11:49:02.722Z,63.00
2023-02-17T11:50:02.510Z,63.00
2023-02-17T11:51:02.510Z,63.00
2023-02-17T11:52:02.522Z,63.00
2023-02-17T11:53:02.550Z,63.00
2023-02-17T11:54:02.474Z,63.00
2023-02-17T11:55:02.441Z,63.00
2023-02-17T11:56:02.399Z,63.00
2023-02-17T11:57:02.418Z,64.00
2023-02-17T11:58:03.074Z,63.00
2023-02-17T11:59:03.041Z,63.00
2023-02-17T12:00:03.025Z,63.00
2023-02-17T12:01:03.079Z,63.00
2023-02-17T12:02:02.984Z,63.00
2023-02-17T12:03:02.694Z,63.00
2023-02-17T12:04:02.696Z,63.00
2023-02-17T12:05:02.738Z,62.00
2023-02-17T12:06:02.656Z,63.00
2023-02-17T12:07:02.682Z,63.00
2023-02-17T12:08:02.582Z,63.00
2023-02-17T12:09:02.282Z,63.00
2023-02-17T12:10:02.284Z,63.00
2023-02-17T12:11:02.382Z,64.00
2023-02-17T12:12:02.287Z,64.00
2023-02-17T12:13:02.963Z,63.00
2023-02-17T12:14:02.970Z,63.00
2023-02-17T12:15:03.166Z,63.00
2023-02-17T12:16:03.082Z,63.00
2023-02-17T12:17:02.837Z,63.00
2023-02-17T12:18:02.678Z,63.00
2023-02-17T12:19:02.472Z,63.00
2023-02-17T12:20:02.366Z,63.00
2023-02-17T12:21:02.505Z,63.00
2023-02-17T12:22:02.615Z,63.00
2023-02-17T12:23:02.678Z,63.00
2023-02-17T12:24:02.633Z,63.00
2023-02-17T12:25:02.541Z,63.00
2023-02-17T12:26:02.546Z,63.00
2023-02-17T12:27:02.352Z,62.00
2023-02-17T12:28:02.970Z,63.00
2023-02-17T12:29:02.957Z,62.00
2023-02-17T12:30:03.101Z,63.00
2023-02-17T12:31:03.388Z,63.00
2023-02-17T12:32:02.819Z,63.00
2023-02-17T12:33:02.745Z,62.00
2023-02-17T12:34:02.498Z,62.00
2023-02-17T12:35:02.431Z,62.00
2023-02-17T12:36:02.347Z,62.00
2023-02-17T12:37:02.248Z,62.00
2023-02-17T12:38:02.986Z,63.00
2023-02-17T12:39:03.002Z,63.00
2023-02-17T12:40:02.824Z,62.00
2023-02-17T12:41:02.819Z,62.00
2023-02-17T12:42:03.116Z,62.00
2023-02-17T12:43:02.656Z,62.00
2023-02-17T12:44:02.462Z,62.00
2023-02-17T12:45:02.508Z,62.00
2023-02-17T12:46:02.611Z,61.00
2023-02-17T12:47:02.441Z,62.00
2023-02-17T12:48:02.829Z,61.00
2023-02-17T12:49:02.806Z,61.00
2023-02-17T12:50:02.565Z,61.00
2023-02-17T12:51:02.561Z,61.00
2023-02-17T12:52:02.544Z,61.00
2023-02-17T12:53:03.224Z,61.00
2023-02-17T12:54:03.028Z,62.00
2023-02-17T12:55:02.899Z,62.00
2023-02-17T12:56:02.863Z,62.00
2023-02-17T12:57:02.814Z,62.00